Ah Gwah Ching, MN

5:52 AM CDT on September 15, 2014 (GMT -0500)
Park Rapids Municipal | Change Station
CLOSE
Current Station
Airport
Location: Park Rapids,
Elevation: 1440 ft
Nearby Weather Stations

Elev 1440 ft 46.90 °N, 95.07 °W | Updated 59 minutes ago

Overcast
Overcast
42 °F
Feels Like 42 °F
N
0
Wind Variable Wind from North

Today
High -- | Low -- °F
--% Chance of Precip.
Yesterday
High -- | Low -- °F
Precip. -- in
6:55 AM 7:30 PM
Waning Gibbous, 56% visible
Pressure 30.19 in
Visibility 10.0 miles
Clouds Overcast 6000 ft
Dew Point 41 °F
Humidity 96%
Rainfall 0.00 in
Snow Depth Not available.
UV 0 out of 12
Pollen 3.00 out of 12
Air Quality Not available.
Flu Activity Not available.
METAR KPKD 150953Z AUTO 00000KT 10SM OVC060 06/05 A3016 RMK AO2 SLP222 T00560050 TSNO

More Conditions Fewer Conditions

Pressure 30.19 in
Visibility 10.0 miles
Clouds Overcast 6000 ft
Dew Point 41 °F
Humidity 96%
Rainfall 0.00 in
Snow Depth Not available.
UV 0 out of 12
Pollen 3.00 out of 12
Air Quality Not available.
Flu Activity Not available.
METAR KPKD 150953Z AUTO 00000KT 10SM OVC060 06/05 A3016 RMK AO2 SLP222 T00560050 TSNO

More Conditions Fewer Conditions

10-Day Weather Forecast

Almanac

Astronomy

Sep. 15, 2014 Rise Set
Actual Time 6:55 AM CDT 7:30 PM CDT
Civil Twilight 6:25 AM CDT 8:00 PM CDT
Nautical Twilight 5:48 AM CDT 8:36 PM CDT
Astronomical Twilight 5:10 AM CDT 9:14 PM CDT
Moon 11:50 PM CDT 2:19 PM CDT
Length of Visible Light 13h 35m
Length of Day
12h 34m
Tomorrow will be 3m 21s shorter.
Waning Gibbous, 56% of the Moon is Illuminated
Today
Waning Gibbous
Sep 15
Last Quarter
Sep 24
New
Oct 1
First Quarter
Oct 8
Full

Today's Extremes

State Highs State Lows

Community

WunderPhotos

Upload Photos

1,753,428 photos uploaded!

Nearby

Snow Depth

Station Depth Elevation
No new snow has been reported.

Earthquake Activity

City Distance Mag. Time & Date
No recent earthquake activity has been reported nearby.
Minimum magnitude displayed is 2.5.

Coastal Water Temperatures

Place Temperature
No Stations Reporting

Nearby Weather Stations